Time;durP1;ratioP1;P1;durP2;ratioP2;P2;SDS_P1;SDS_P2;PMS_P1;PMS_P2;Temp;Humidity;BMP_temperature;BMP_pressure;BME280_temperature;BME280_humidity;BME280_pressure;Samples;Min_cycle;Max_cycle;Signal;HPM_P1;HPM_P2
2021/10/06 00:01:26;;;;;;;3.30;1.00;;;12.20;99.90;;;;;;5071432;28;20044;-66
2021/10/06 00:03:53;;;;;;;4.13;1.38;;;12.20;99.90;;;;;;5075644;28;20041;-66
2021/10/06 00:06:20;;;;;;;3.78;1.27;;;12.10;99.90;;;;;;5068457;28;20044;-67
2021/10/06 00:08:47;;;;;;;3.78;1.40;;;12.00;99.90;;;;;;5076471;28;20039;-66
2021/10/06 00:11:15;;;;;;;6.28;1.40;;;12.00;99.90;;;;;;5079005;28;20051;-66
2021/10/06 00:13:42;;;;;;;3.85;1.10;;;11.90;99.90;;;;;;5073616;28;20036;-66
2021/10/06 00:16:12;;;;;;;4.75;1.20;;;12.00;99.90;;;;;;5072138;28;20131;-67
2021/10/06 00:18:40;;;;;;;7.15;1.55;;;11.90;99.90;;;;;;5066915;28;20097;-66
2021/10/06 00:21:08;;;;;;;4.85;1.38;;;11.80;99.90;;;;;;5068481;28;20056;-67
2021/10/06 00:23:35;;;;;;;2.63;1.40;;;11.80;99.90;;;;;;5069233;28;20060;-67
2021/10/06 00:26:05;;;;;;;4.93;1.40;;;11.60;99.90;;;;;;5067222;28;20049;-66
2021/10/06 00:28:33;;;;;;;5.35;1.17;;;11.50;99.90;;;;;;5078258;28;20470;-67
2021/10/06 00:31:00;;;;;;;6.78;1.27;;;11.60;99.90;;;;;;5076823;28;20319;-66
2021/10/06 00:33:28;;;;;;;5.05;1.35;;;11.60;99.90;;;;;;5069228;28;20045;-67
2021/10/06 00:35:56;;;;;;;3.72;1.20;;;11.50;99.90;;;;;;5079268;28;20048;-66
2021/10/06 00:38:25;;;;;;;7.20;1.50;;;11.40;99.90;;;;;;5074729;28;20033;-66
2021/10/06 00:40:54;;;;;;;6.65;1.50;;;11.20;99.90;;;;;;5080173;28;20036;-66
2021/10/06 00:43:21;;;;;;;3.08;1.20;;;11.20;99.90;;;;;;5073204;28;20059;-66
2021/10/06 00:45:49;;;;;;;5.32;1.33;;;11.10;99.90;;;;;;5078303;28;20041;-66
2021/10/06 00:48:17;;;;;;;4.65;1.77;;;11.00;99.90;;;;;;5078826;28;20056;-66
2021/10/06 00:50:44;;;;;;;5.50;1.40;;;11.00;99.90;;;;;;5074748;28;20060;-66
2021/10/06 00:53:12;;;;;;;5.78;1.73;;;11.00;99.90;;;;;;5069427;28;20477;-66
2021/10/06 00:55:40;;;;;;;3.78;1.52;;;11.00;99.90;;;;;;5077490;28;20616;-66
2021/10/06 00:58:08;;;;;;;3.50;1.50;;;11.00;99.90;;;;;;5070009;28;20410;-66
2021/10/06 01:00:35;;;;;;;5.00;1.50;;;11.10;99.90;;;;;;5080730;28;20048;-66
2021/10/06 01:03:03;;;;;;;7.13;1.77;;;11.10;99.90;;;;;;5060790;28;20048;-66
2021/10/06 01:05:30;;;;;;;4.43;1.50;;;11.10;99.90;;;;;;5086316;28;20051;-66
2021/10/06 01:07:59;;;;;;;6.75;1.38;;;11.10;99.90;;;;;;5054284;28;20084;-66
2021/10/06 01:10:27;;;;;;;4.70;1.30;;;11.20;99.90;;;;;;5084829;28;20072;-66
2021/10/06 01:12:55;;;;;;;6.88;1.75;;;11.30;99.90;;;;;;5084788;28;20794;-66
2021/10/06 01:15:23;;;;;;;4.72;1.83;;;11.30;99.90;;;;;;5089442;28;20407;-66
2021/10/06 01:17:51;;;;;;;4.22;1.33;;;11.30;99.90;;;;;;5085429;28;20048;-66
2021/10/06 01:20:18;;;;;;;3.53;1.30;;;11.20;99.90;;;;;;5087144;28;20048;-66
2021/10/06 01:22:46;;;;;;;3.58;1.80;;;11.20;99.90;;;;;;5088956;28;20056;-66
2021/10/06 01:25:16;;;;;;;6.38;1.75;;;11.10;99.90;;;;;;5080566;28;20078;-66
2021/10/06 01:27:44;;;;;;;4.90;1.50;;;11.10;99.90;;;;;;5062142;28;20040;-66
2021/10/06 01:30:14;;;;;;;3.60;1.38;;;11.10;99.90;;;;;;5076610;28;20048;-66
2021/10/06 01:32:44;;;;;;;3.67;1.50;;;11.10;99.90;;;;;;5078253;28;20044;-66
2021/10/06 01:35:13;;;;;;;3.47;1.40;;;11.10;99.90;;;;;;5058832;28;20072;-66
2021/10/06 01:37:42;;;;;;;4.25;1.40;;;11.10;99.90;;;;;;5079864;28;20040;-66
2021/10/06 01:40:19;;;;;;;5.18;1.50;;;11.10;99.90;;;;;;5077346;28;20072;-66
2021/10/06 01:42:47;;;;;;;4.22;1.80;;;11.10;99.90;;;;;;5050617;28;20044;-67
2021/10/06 01:45:21;;;;;;;7.25;1.98;;;11.10;99.90;;;;;;5057033;28;20115;-67
2021/10/06 01:47:48;;;;;;;3.58;1.40;;;11.10;99.90;;;;;;5070940;28;20089;-67
2021/10/06 01:50:22;;;;;;;5.78;1.52;;;11.10;99.90;;;;;;5076297;28;20076;-67
2021/10/06 01:52:49;;;;;;;6.60;1.40;;;11.00;99.90;;;;;;5069100;28;20148;-67
2021/10/06 01:55:22;;;;;;;5.18;1.80;;;11.00;99.90;;;;;;5068862;28;20055;-67
2021/10/06 01:57:50;;;;;;;7.72;1.80;;;11.00;99.90;;;;;;5069346;28;20055;-67
2021/10/06 02:00:17;;;;;;;6.28;1.77;;;10.90;99.90;;;;;;5061255;28;20054;-67
2021/10/06 02:02:44;;;;;;;5.65;1.85;;;10.90;99.90;;;;;;5073017;28;20052;-67
2021/10/06 02:05:12;;;;;;;5.07;1.38;;;10.90;99.90;;;;;;5081535;28;20155;-67
2021/10/06 02:07:39;;;;;;;3.08;1.50;;;10.90;99.90;;;;;;5073067;28;20059;-67
2021/10/06 02:10:07;;;;;;;3.72;1.50;;;11.00;99.90;;;;;;5077798;28;20403;-67
2021/10/06 02:12:34;;;;;;;6.75;1.83;;;11.10;99.90;;;;;;5072472;28;20040;-67
2021/10/06 02:15:03;;;;;;;3.75;1.40;;;11.10;99.90;;;;;;5076142;28;20040;-67
2021/10/06 02:17:31;;;;;;;4.43;1.80;;;11.00;99.90;;;;;;5073326;28;20047;-67
2021/10/06 02:19:58;;;;;;;4.00;1.30;;;11.00;99.90;;;;;;5075868;28;20040;-67
2021/10/06 02:22:26;;;;;;;6.93;1.70;;;11.00;99.90;;;;;;5076231;28;20041;-67
2021/10/06 02:24:54;;;;;;;4.55;1.50;;;11.00;99.90;;;;;;5072692;28;20621;-67
2021/10/06 02:27:21;;;;;;;3.75;1.45;;;10.90;99.90;;;;;;5071658;28;20391;-67
2021/10/06 02:29:48;;;;;;;5.38;1.50;;;11.00;99.90;;;;;;5086864;28;20047;-67
2021/10/06 02:32:15;;;;;;;4.15;1.30;;;10.90;99.90;;;;;;5074110;28;20047;-67
2021/10/06 02:34:43;;;;;;;3.50;1.23;;;11.00;99.90;;;;;;5073400;28;20536;-67
2021/10/06 02:37:10;;;;;;;4.28;1.63;;;10.90;99.90;;;;;;5073843;28;20059;-67
2021/10/06 02:39:37;;;;;;;7.53;1.77;;;10.90;99.90;;;;;;5071516;28;20044;-67
2021/10/06 02:42:05;;;;;;;3.55;1.50;;;10.90;99.90;;;;;;5053234;28;20439;-67
2021/10/06 02:44:32;;;;;;;4.75;1.52;;;10.90;99.90;;;;;;5073285;28;20036;-67
2021/10/06 02:47:02;;;;;;;6.00;1.55;;;11.00;99.90;;;;;;5058479;28;20041;-67
2021/10/06 02:49:29;;;;;;;8.60;2.10;;;11.00;99.90;;;;;;5072230;28;20040;-67
2021/10/06 02:51:57;;;;;;;5.38;1.40;;;10.90;99.90;;;;;;5064745;28;20040;-67
2021/10/06 02:54:25;;;;;;;6.80;1.88;;;10.90;99.90;;;;;;5048945;28;20045;-67
2021/10/06 02:56:52;;;;;;;5.03;1.50;;;10.80;99.90;;;;;;5073047;28;20115;-67
2021/10/06 02:59:20;;;;;;;3.80;1.40;;;10.80;99.90;;;;;;5063720;28;20450;-67
2021/10/06 03:01:47;;;;;;;7.65;1.85;;;10.80;99.90;;;;;;5078579;28;20051;-67
2021/10/06 03:04:14;;;;;;;3.53;1.67;;;10.90;99.90;;;;;;5073895;28;20048;-67
2021/10/06 03:06:42;;;;;;;3.95;1.60;;;10.90;99.90;;;;;;5078449;28;20410;-66
2021/10/06 03:09:11;;;;;;;4.45;1.67;;;10.90;99.90;;;;;;5072167;28;20075;-66
2021/10/06 03:11:38;;;;;;;3.72;1.48;;;10.90;99.90;;;;;;5068831;28;20044;-66
2021/10/06 03:14:06;;;;;;;4.88;1.50;;;10.90;99.90;;;;;;5078936;28;20040;-66
2021/10/06 03:16:33;;;;;;;5.45;1.58;;;10.90;99.90;;;;;;5077622;28;20040;-66
2021/10/06 03:19:00;;;;;;;8.52;1.63;;;11.00;99.90;;;;;;5083421;28;20036;-67
2021/10/06 03:21:28;;;;;;;5.32;1.48;;;11.00;99.90;;;;;;5077824;28;20045;-67
2021/10/06 03:23:55;;;;;;;6.63;1.70;;;10.90;99.90;;;;;;5075705;28;20043;-67
2021/10/06 03:26:22;;;;;;;5.90;1.70;;;11.00;99.90;;;;;;5079580;28;20044;-67
2021/10/06 03:28:50;;;;;;;7.35;1.70;;;11.00;99.90;;;;;;5081745;28;20051;-67
2021/10/06 03:31:17;;;;;;;8.45;1.65;;;11.00;99.90;;;;;;5079057;28;20048;-68
2021/10/06 03:33:44;;;;;;;7.57;1.55;;;10.90;99.90;;;;;;5080763;28;20070;-68
2021/10/06 03:36:11;;;;;;;5.05;1.38;;;10.90;99.90;;;;;;5082879;28;20063;-67
2021/10/06 03:38:38;;;;;;;5.60;1.50;;;10.90;99.90;;;;;;5077530;28;20036;-66
2021/10/06 03:41:06;;;;;;;4.03;1.45;;;11.00;99.90;;;;;;5084104;28;20044;-67
2021/10/06 03:43:33;;;;;;;3.80;1.33;;;11.10;99.90;;;;;;5076159;28;20048;-66
2021/10/06 03:46:00;;;;;;;4.68;1.50;;;11.00;99.90;;;;;;5079170;28;20140;-67
2021/10/06 03:48:28;;;;;;;4.18;1.60;;;11.00;99.90;;;;;;5067328;28;21269;-66
2021/10/06 03:50:55;;;;;;;6.78;1.40;;;11.00;99.90;;;;;;5069841;28;20067;-66
2021/10/06 03:53:22;;;;;;;5.88;1.58;;;11.00;99.90;;;;;;5051279;28;20091;-67
2021/10/06 03:55:51;;;;;;;4.40;1.50;;;11.00;99.90;;;;;;5067203;28;20040;-66
2021/10/06 03:58:18;;;;;;;4.50;1.38;;;11.00;99.90;;;;;;5071798;28;20407;-66
2021/10/06 04:00:46;;;;;;;5.63;1.58;;;11.00;99.90;;;;;;5067014;28;20048;-66
2021/10/06 04:03:14;;;;;;;5.05;1.40;;;10.90;99.90;;;;;;5069379;28;20257;-67
2021/10/06 04:05:43;;;;;;;4.50;1.20;;;10.90;99.90;;;;;;5070012;28;20044;-67
2021/10/06 04:08:11;;;;;;;3.85;1.42;;;10.90;99.90;;;;;;5070512;28;20037;-67
2021/10/06 04:10:39;;;;;;;4.68;1.48;;;10.80;99.90;;;;;;5061746;28;20056;-67
2021/10/06 04:13:06;;;;;;;4.32;1.92;;;10.80;99.90;;;;;;5050985;28;20505;-67
2021/10/06 04:15:33;;;;;;;3.47;1.50;;;10.90;99.90;;;;;;5048753;28;20448;-67
2021/10/06 04:18:04;;;;;;;8.68;1.70;;;10.90;99.90;;;;;;5051241;28;20469;-67
2021/10/06 04:20:33;;;;;;;6.20;1.50;;;10.90;99.90;;;;;;5053048;28;20036;-67
2021/10/06 04:23:00;;;;;;;9.13;1.70;;;10.90;99.90;;;;;;5058171;28;20043;-67
2021/10/06 04:25:28;;;;;;;4.47;1.30;;;10.90;99.90;;;;;;5072964;28;20056;-67
2021/10/06 04:27:55;;;;;;;5.70;1.55;;;10.80;99.90;;;;;;5085866;28;20040;-67
2021/10/06 04:30:23;;;;;;;5.82;1.77;;;10.80;99.90;;;;;;5084314;28;20032;-67
2021/10/06 04:32:50;;;;;;;5.13;1.58;;;10.80;99.90;;;;;;5079280;28;20048;-68
2021/10/06 04:35:17;;;;;;;4.63;1.40;;;10.80;99.90;;;;;;5070172;28;20040;-68
2021/10/06 04:37:44;;;;;;;4.40;1.60;;;10.70;99.90;;;;;;5071469;28;20036;-68
2021/10/06 04:40:12;;;;;;;4.97;1.52;;;10.80;99.90;;;;;;5054689;28;20053;-68
2021/10/06 04:42:39;;;;;;;5.68;1.77;;;10.70;99.90;;;;;;5069783;28;20405;-68
2021/10/06 04:45:07;;;;;;;5.63;1.42;;;10.70;99.90;;;;;;5069087;28;20040;-68
2021/10/06 04:47:37;;;;;;;4.82;1.40;;;10.80;99.90;;;;;;5050964;28;20109;-68
2021/10/06 04:50:06;;;;;;;4.97;1.83;;;10.80;99.90;;;;;;5065141;28;20123;-68
2021/10/06 04:52:33;;;;;;;4.53;1.50;;;10.70;99.90;;;;;;5056893;28;20051;-68
2021/10/06 04:55:01;;;;;;;10.02;4.47;;;10.60;99.90;;;;;;5083746;28;20032;-68
2021/10/06 04:57:28;;;;;;;6.75;1.83;;;10.60;99.90;;;;;;5066301;28;20094;-69
2021/10/06 04:59:55;;;;;;;6.55;1.70;;;10.60;99.90;;;;;;5052646;28;20040;-67
2021/10/06 05:02:23;;;;;;;3.70;1.40;;;10.60;99.90;;;;;;5028925;28;20068;-67
2021/10/06 05:04:50;;;;;;;7.43;2.10;;;10.70;99.90;;;;;;5058904;28;20105;-67
2021/10/06 05:07:17;;;;;;;16.13;9.00;;;10.60;99.90;;;;;;5070582;28;20045;-67
2021/10/06 05:09:45;;;;;;;7.50;1.75;;;10.50;99.90;;;;;;5061434;28;20053;-68
2021/10/06 05:12:12;;;;;;;5.28;1.60;;;10.60;99.90;;;;;;5070000;28;20049;-68
2021/10/06 05:14:39;;;;;;;6.75;1.70;;;10.50;99.90;;;;;;5064879;28;20041;-68
2021/10/06 05:17:06;;;;;;;5.60;1.80;;;10.50;99.90;;;;;;5075556;28;20047;-67
2021/10/06 05:19:34;;;;;;;5.13;1.85;;;10.50;99.90;;;;;;5072605;28;20102;-68
2021/10/06 05:22:02;;;;;;;4.10;1.58;;;10.50;99.90;;;;;;5066303;28;20533;-68
2021/10/06 05:24:30;;;;;;;10.82;2.13;;;10.50;99.90;;;;;;5066453;28;20052;-68
2021/10/06 05:26:57;;;;;;;10.38;2.33;;;10.50;99.90;;;;;;5056825;28;20044;-68
2021/10/06 05:29:24;;;;;;;5.97;1.80;;;10.50;99.90;;;;;;5071722;28;20048;-67
2021/10/06 05:31:51;;;;;;;5.40;2.42;;;10.60;99.90;;;;;;5054104;28;20041;-67
2021/10/06 05:34:19;;;;;;;8.00;2.53;;;10.60;99.90;;;;;;5065806;28;20037;-67
2021/10/06 05:36:46;;;;;;;8.10;1.98;;;10.60;99.90;;;;;;5075557;28;20098;-67
2021/10/06 05:39:13;;;;;;;5.15;1.70;;;10.70;99.90;;;;;;5070081;28;20036;-67
2021/10/06 05:41:40;;;;;;;9.20;1.85;;;10.70;99.90;;;;;;5075189;28;20054;-67
2021/10/06 05:44:08;;;;;;;6.38;1.92;;;10.70;99.90;;;;;;5070891;28;20040;-67
2021/10/06 05:46:35;;;;;;;4.47;1.58;;;10.70;99.90;;;;;;5076574;28;20037;-67
2021/10/06 05:49:02;;;;;;;5.53;2.30;;;10.70;99.90;;;;;;5066952;28;20062;-67
2021/10/06 05:51:31;;;;;;;8.05;2.17;;;10.70;99.90;;;;;;5074409;28;20131;-67
2021/10/06 05:53:58;;;;;;;6.80;2.40;;;10.70;99.90;;;;;;5071249;28;20415;-67
2021/10/06 05:56:25;;;;;;;8.93;2.20;;;10.70;99.90;;;;;;5070717;28;20048;-67
2021/10/06 05:58:53;;;;;;;9.50;2.53;;;10.80;99.90;;;;;;5072760;28;20037;-67
2021/10/06 06:01:20;;;;;;;7.47;2.00;;;10.70;99.90;;;;;;5071639;28;20048;-67
2021/10/06 06:03:47;;;;;;;8.75;2.92;;;10.70;99.90;;;;;;5070163;28;20462;-68
2021/10/06 06:06:15;;;;;;;14.18;2.90;;;10.70;99.90;;;;;;5070255;28;20521;-68
2021/10/06 06:08:42;;;;;;;6.40;2.10;;;10.70;99.90;;;;;;5071375;28;20040;-68
2021/10/06 06:11:09;;;;;;;5.00;1.63;;;10.70;99.90;;;;;;5054441;28;20052;-67
2021/10/06 06:13:37;;;;;;;9.18;2.08;;;10.80;99.90;;;;;;5070899;28;20047;-67
2021/10/06 06:16:05;;;;;;;5.90;2.20;;;10.80;99.90;;;;;;5069795;28;20048;-67
2021/10/06 06:18:33;;;;;;;6.95;2.70;;;10.80;99.90;;;;;;5072075;28;20097;-67
2021/10/06 06:21:00;;;;;;;12.63;2.33;;;10.80;99.90;;;;;;5070591;28;20132;-67
2021/10/06 06:23:29;;;;;;;4.35;1.88;;;10.70;99.90;;;;;;5070869;28;20128;-68
2021/10/06 06:25:57;;;;;;;7.40;2.10;;;10.70;99.90;;;;;;5072254;28;20040;-67
2021/10/06 06:28:24;;;;;;;6.30;1.98;;;10.70;99.90;;;;;;5073236;28;20463;-67
2021/10/06 06:30:51;;;;;;;5.75;1.80;;;10.80;99.90;;;;;;5076675;28;20048;-68
2021/10/06 06:33:18;;;;;;;8.02;1.70;;;10.80;99.90;;;;;;5085851;28;20052;-67
2021/10/06 06:35:46;;;;;;;6.03;1.75;;;10.80;99.90;;;;;;5073360;28;20043;-67
2021/10/06 06:38:13;;;;;;;4.07;1.70;;;10.80;99.90;;;;;;5071157;28;20044;-68
2021/10/06 06:40:43;;;;;;;8.68;2.10;;;10.90;99.90;;;;;;5075731;28;20043;-68
2021/10/06 06:43:11;;;;;;;9.25;2.08;;;10.90;99.90;;;;;;5072962;28;20033;-67
2021/10/06 06:45:38;;;;;;;6.93;1.88;;;11.00;99.90;;;;;;5078405;28;20422;-68
2021/10/06 06:48:06;;;;;;;9.35;1.85;;;11.10;99.90;;;;;;5069357;28;20487;-68
2021/10/06 06:50:45;;;;;;;7.32;1.52;;;11.20;99.90;;;;;;5075287;28;20072;-68
2021/10/06 06:53:13;;;;;;;6.20;1.50;;;11.20;99.90;;;;;;5070627;28;20044;-68
2021/10/06 06:55:40;;;;;;;4.90;1.70;;;11.30;99.90;;;;;;5070428;28;20051;-67
2021/10/06 06:58:07;;;;;;;5.35;1.83;;;11.30;99.90;;;;;;5050360;28;20037;-67
2021/10/06 07:00:34;;;;;;;4.05;1.67;;;11.30;99.90;;;;;;5073907;28;20517;-67
2021/10/06 07:03:02;;;;;;;7.82;2.15;;;11.40;99.90;;;;;;5077625;28;20044;-67
2021/10/06 07:05:30;;;;;;;5.32;1.83;;;11.50;99.90;;;;;;5078869;28;20071;-67
2021/10/06 07:07:57;;;;;;;6.32;1.80;;;11.50;99.90;;;;;;5078197;28;20032;-67
2021/10/06 07:10:24;;;;;;;5.18;1.55;;;11.50;99.90;;;;;;5076250;28;20051;-67
2021/10/06 07:12:52;;;;;;;7.63;1.70;;;11.50;99.90;;;;;;5067107;28;20060;-67
2021/10/06 07:15:19;;;;;;;6.85;1.67;;;11.40;99.90;;;;;;5080795;28;20058;-67
2021/10/06 07:17:46;;;;;;;4.35;1.67;;;11.40;99.90;;;;;;5080543;28;20467;-67
2021/10/06 07:20:13;;;;;;;9.32;1.70;;;11.40;99.90;;;;;;5079177;28;20044;-67
2021/10/06 07:22:44;;;;;;;2.97;1.23;;;11.50;99.90;;;;;;5067670;28;20057;-67
2021/10/06 07:25:12;;;;;;;7.68;2.13;;;11.50;99.90;;;;;;5074164;28;20053;-67
2021/10/06 07:27:39;;;;;;;5.80;1.50;;;11.60;99.90;;;;;;5079491;28;20046;-67
2021/10/06 07:30:07;;;;;;;4.65;1.52;;;11.70;99.90;;;;;;5075910;28;20045;-67
2021/10/06 07:32:35;;;;;;;8.00;1.55;;;11.70;99.90;;;;;;5061581;28;20045;-67
2021/10/06 07:35:02;;;;;;;3.47;1.25;;;11.70;99.90;;;;;;5070068;28;20049;-67
2021/10/06 07:37:46;;;;;;;5.05;1.50;;;11.70;99.90;;;;;;5070569;28;20041;-67
2021/10/06 07:40:13;;;;;;;2.67;1.20;;;11.70;99.90;;;;;;5064884;28;20052;-67
2021/10/06 07:42:41;;;;;;;4.25;1.40;;;11.80;99.90;;;;;;5072911;28;20414;-67
2021/10/06 07:45:09;;;;;;;7.00;1.50;;;11.80;99.90;;;;;;5077967;28;20413;-67
2021/10/06 07:47:36;;;;;;;4.55;1.35;;;11.70;99.90;;;;;;5068743;28;20035;-67
2021/10/06 07:50:04;;;;;;;4.45;1.45;;;11.80;99.90;;;;;;5076463;28;20119;-67
2021/10/06 07:52:33;;;;;;;4.63;1.10;;;11.90;99.90;;;;;;5067680;28;20033;-69
2021/10/06 07:55:00;;;;;;;5.40;1.30;;;12.00;99.90;;;;;;5067736;28;20044;-68
2021/10/06 07:57:29;;;;;;;3.58;1.02;;;12.00;99.90;;;;;;5068462;28;20424;-68
2021/10/06 07:59:59;;;;;;;3.38;1.10;;;12.00;99.90;;;;;;5069681;28;20040;-68
2021/10/06 08:02:27;;;;;;;5.55;1.33;;;12.10;99.90;;;;;;5074604;28;20052;-68
2021/10/06 08:04:54;;;;;;;3.53;1.10;;;12.30;99.90;;;;;;5071624;28;20043;-68
2021/10/06 08:07:21;;;;;;;7.30;1.20;;;12.30;99.90;;;;;;5076387;28;20055;-67
2021/10/06 08:09:49;;;;;;;4.75;1.30;;;12.40;99.90;;;;;;5073267;28;20048;-67
2021/10/06 08:12:16;;;;;;;4.45;1.25;;;12.50;99.90;;;;;;5069523;28;20041;-68
2021/10/06 08:14:43;;;;;;;4.53;1.33;;;12.60;99.90;;;;;;5069815;28;20447;-68
2021/10/06 08:17:10;;;;;;;5.53;1.40;;;12.70;99.90;;;;;;5088024;28;20520;-67
2021/10/06 08:19:38;;;;;;;4.93;1.40;;;12.70;99.90;;;;;;5079332;28;21871;-67
2021/10/06 08:22:05;;;;;;;4.35;1.27;;;12.70;99.90;;;;;;5069535;28;20139;-67
2021/10/06 08:24:33;;;;;;;4.43;1.42;;;12.70;99.90;;;;;;5058894;28;20043;-68
2021/10/06 08:27:01;;;;;;;4.30;1.48;;;12.80;99.90;;;;;;5073342;28;20050;-67
2021/10/06 08:29:28;;;;;;;3.53;1.52;;;12.90;99.90;;;;;;5082469;28;20051;-68
2021/10/06 08:31:57;;;;;;;5.13;1.77;;;12.90;99.90;;;;;;5079866;28;20032;-68
2021/10/06 08:34:25;;;;;;;5.70;1.83;;;12.90;99.90;;;;;;5068717;28;20455;-68
2021/10/06 08:36:52;;;;;;;6.50;1.52;;;12.80;99.90;;;;;;5076432;28;20074;-68
2021/10/06 08:39:20;;;;;;;5.22;1.33;;;12.90;99.90;;;;;;5081992;28;20146;-68
2021/10/06 08:41:47;;;;;;;3.70;1.70;;;13.00;99.90;;;;;;5068990;28;20528;-68
2021/10/06 08:44:16;;;;;;;4.85;1.35;;;12.70;99.90;;;;;;5074426;28;20070;-68
2021/10/06 08:46:44;;;;;;;5.88;1.50;;;12.70;99.90;;;;;;5068776;28;20051;-68
2021/10/06 08:49:11;;;;;;;6.28;1.65;;;12.70;99.90;;;;;;5077071;28;20130;-68
2021/10/06 08:51:38;;;;;;;6.65;1.38;;;12.70;99.90;;;;;;5074096;28;20135;-68
2021/10/06 08:54:06;;;;;;;6.05;1.63;;;12.90;99.90;;;;;;5044242;28;20052;-68
2021/10/06 08:56:34;;;;;;;3.50;1.23;;;12.90;99.90;;;;;;5064987;28;20397;-68
2021/10/06 08:59:03;;;;;;;3.65;1.25;;;12.90;99.90;;;;;;5066979;28;20094;-68
2021/10/06 09:01:30;;;;;;;4.88;1.30;;;12.90;99.90;;;;;;5080304;28;20040;-68
2021/10/06 09:04:04;;;;;;;3.55;1.38;;;12.90;99.90;;;;;;5081734;28;20313;-68
2021/10/06 09:06:38;;;;;;;6.93;1.73;;;12.80;99.90;;;;;;5063621;28;20114;-68
2021/10/06 09:09:23;;;;;;;7.93;1.45;;;13.00;99.90;;;;;;5081472;28;20041;-68
2021/10/06 09:11:53;;;;;;;3.17;1.60;;;13.00;99.90;;;;;;5043911;28;20044;-68
2021/10/06 09:14:21;;;;;;;5.15;1.30;;;13.20;99.90;;;;;;5071828;28;20040;-67
2021/10/06 09:17:12;;;;;;;5.45;1.30;;;13.20;99.90;;;;;;5078796;28;20043;-68
2021/10/06 09:19:46;;;;;;;4.03;1.40;;;13.30;99.90;;;;;;5067373;28;20051;-67
2021/10/06 09:22:22;;;;;;;3.00;1.40;;;13.30;99.90;;;;;;5071927;28;20047;-67
2021/10/06 09:24:57;;;;;;;3.78;1.45;;;13.40;99.90;;;;;;5072228;28;20063;-66
2021/10/06 09:27:30;;;;;;;4.32;1.17;;;13.30;99.90;;;;;;5060181;28;20041;-67
2021/10/06 09:30:00;;;;;;;2.85;1.23;;;13.40;99.90;;;;;;5078606;28;20051;-67
2021/10/06 09:32:49;;;;;;;4.03;1.30;;;13.50;99.90;;;;;;5056870;28;20447;-67
2021/10/06 09:35:22;;;;;;;5.53;1.63;;;13.50;99.90;;;;;;5056130;28;20043;-67
2021/10/06 09:37:53;;;;;;;3.58;1.30;;;13.50;99.90;;;;;;5085167;28;20352;-66
2021/10/06 09:40:24;;;;;;;4.07;1.20;;;13.60;99.90;;;;;;5078030;28;20128;-67
2021/10/06 09:42:57;;;;;;;3.90;1.10;;;13.70;99.90;;;;;;5071281;28;20135;-67
2021/10/06 09:45:43;;;;;;;4.78;1.30;;;13.80;99.90;;;;;;5070469;28;20530;-66
2021/10/06 09:48:12;;;;;;;5.18;1.83;;;13.80;99.90;;;;;;5063524;28;20062;-67
2021/10/06 09:50:43;;;;;;;4.72;1.30;;;13.90;99.90;;;;;;5076618;28;20072;-67
2021/10/06 09:53:17;;;;;;;3.03;1.40;;;13.90;99.90;;;;;;5074333;28;20036;-67
2021/10/06 09:55:48;;;;;;;3.80;1.20;;;14.10;99.90;;;;;;5087392;28;20044;-66
2021/10/06 09:58:17;;;;;;;5.97;1.23;;;14.10;99.90;;;;;;5085158;28;20040;-66
2021/10/06 10:00:46;;;;;;;3.10;1.13;;;14.10;99.90;;;;;;5079479;28;20044;-66
2021/10/06 10:03:13;;;;;;;4.82;1.48;;;14.10;99.90;;;;;;5073001;28;20152;-67
2021/10/06 10:05:41;;;;;;;5.55;1.50;;;14.30;99.90;;;;;;5069864;28;20414;-66
2021/10/06 10:08:09;;;;;;;5.13;1.52;;;14.10;99.90;;;;;;5069381;28;20406;-67
2021/10/06 10:10:38;;;;;;;5.57;1.15;;;13.80;99.90;;;;;;5088970;28;20135;-67
2021/10/06 10:13:06;;;;;;;4.47;1.67;;;13.60;99.90;;;;;;5087479;28;20047;-67
2021/10/06 10:15:34;;;;;;;4.50;1.40;;;13.50;99.90;;;;;;5071864;28;20067;-66
2021/10/06 10:18:05;;;;;;;6.95;1.40;;;13.50;99.90;;;;;;5077053;28;20604;-66
2021/10/06 10:20:35;;;;;;;6.13;1.65;;;13.40;99.90;;;;;;5075673;28;20343;-66
2021/10/06 10:23:04;;;;;;;6.50;1.63;;;13.30;99.90;;;;;;5074796;28;20040;-67
2021/10/06 10:25:39;;;;;;;7.28;1.65;;;13.40;99.90;;;;;;5070849;28;20047;-67
2021/10/06 10:28:11;;;;;;;6.25;1.58;;;13.70;99.90;;;;;;5081368;28;20070;-67
2021/10/06 10:30:40;;;;;;;;;;;14.00;99.90;;;;;;5086245;28;20044;-68
2021/10/06 10:33:08;;;;;;;5.72;1.70;;;14.30;99.90;;;;;;5084444;28;20015;-66
2021/10/06 10:35:40;;;;;;;7.15;1.70;;;14.70;99.90;;;;;;5078323;28;20033;-67
2021/10/06 10:38:10;;;;;;;4.07;1.45;;;14.90;99.90;;;;;;5077250;28;20055;-68
2021/10/06 10:40:43;;;;;;;5.50;1.45;;;14.90;99.90;;;;;;5084534;28;20123;-67
2021/10/06 10:43:23;;;;;;;3.88;1.50;;;14.80;99.90;;;;;;5057865;28;20048;-69
2021/10/06 10:46:10;;;;;;;5.10;1.10;;;14.80;99.90;;;;;;5074612;28;20320;-68
2021/10/06 10:48:56;;;;;;;3.03;1.05;;;14.60;99.90;;;;;;5079752;28;20068;-67
2021/10/06 10:51:56;;;;;;;4.30;1.00;;;14.60;99.90;;;;;;5065293;28;20510;-68
2021/10/06 10:54:31;;;;;;;5.50;1.33;;;14.70;99.90;;;;;;5077688;28;20052;-67
2021/10/06 10:57:15;;;;;;;4.72;1.35;;;14.50;99.90;;;;;;5085179;28;20059;-68
2021/10/06 10:59:45;;;;;;;6.90;1.30;;;14.60;99.90;;;;;;5064132;28;20081;-68
2021/10/06 11:02:23;;;;;;;5.05;1.17;;;14.80;99.90;;;;;;5080879;28;20044;-68
2021/10/06 11:05:06;;;;;;;4.40;1.00;;;14.90;99.90;;;;;;5072692;28;20044;-68
2021/10/06 11:07:48;;;;;;;4.82;1.33;;;14.90;99.90;;;;;;5073805;28;20078;-68
2021/10/06 11:10:17;;;;;;;5.53;1.40;;;14.80;99.90;;;;;;5068833;28;20135;-68
2021/10/06 11:12:55;;;;;;;4.15;1.55;;;14.70;99.90;;;;;;5050774;28;20083;-68
2021/10/06 11:15:25;;;;;;;8.10;1.50;;;14.80;99.90;;;;;;5047655;28;20450;-68
2021/10/06 11:18:21;;;;;;;3.20;1.27;;;14.90;99.90;;;;;;5071293;28;20052;-68
2021/10/06 11:21:00;;;;;;;3.65;1.00;;;14.70;99.90;;;;;;5073059;28;20601;-68
2021/10/06 11:23:30;;;;;;;3.60;0.90;;;14.40;99.90;;;;;;5071056;28;20048;-66
2021/10/06 11:26:04;;;;;;;4.35;1.08;;;14.00;99.90;;;;;;5071587;28;20048;-67
2021/10/06 11:28:36;;;;;;;2.22;0.85;;;13.50;99.90;;;;;;5062326;28;20048;-66
2021/10/06 11:31:04;;;;;;;5.15;1.23;;;13.20;99.90;;;;;;5071236;28;20056;-68
2021/10/06 11:33:33;;;;;;;5.75;1.02;;;12.80;99.90;;;;;;5077489;28;20051;-68
2021/10/06 11:36:14;;;;;;;5.38;1.15;;;12.40;99.90;;;;;;5083895;28;20101;-68
2021/10/06 11:38:45;;;;;;;6.07;1.10;;;12.40;99.90;;;;;;5076611;28;20123;-68
2021/10/06 11:41:13;;;;;;;5.05;1.38;;;12.60;99.90;;;;;;5068006;28;20041;-68
2021/10/06 11:43:45;;;;;;;5.13;1.10;;;12.90;99.90;;;;;;5071801;28;20506;-68
2021/10/06 11:46:13;;;;;;;5.10;1.20;;;13.10;99.90;;;;;;5050066;28;20080;-68
2021/10/06 11:48:41;;;;;;;4.25;1.40;;;13.30;99.90;;;;;;5077976;28;20064;-68
2021/10/06 11:51:08;;;;;;;7.25;1.30;;;13.30;99.90;;;;;;5070330;28;20719;-67
2021/10/06 11:53:45;;;;;;;4.25;1.38;;;13.50;99.90;;;;;;5076839;28;20472;-67
2021/10/06 11:56:27;;;;;;;5.40;1.13;;;13.70;99.90;;;;;;5084165;28;20052;-69
2021/10/06 11:59:04;;;;;;;4.55;1.10;;;13.90;99.90;;;;;;5061284;28;20042;-68
2021/10/06 12:01:31;;;;;;;5.43;1.20;;;13.90;99.90;;;;;;5082347;28;20058;-67
2021/10/06 12:04:14;;;;;;;2.92;1.10;;;14.10;99.90;;;;;;5079967;28;20044;-67
2021/10/06 12:06:44;;;;;;;3.95;0.90;;;14.30;99.90;;;;;;5073949;28;20050;-68
2021/10/06 12:09:13;;;;;;;2.95;0.90;;;14.10;99.90;;;;;;5043999;28;20521;-67
2021/10/06 12:11:44;;;;;;;4.55;1.05;;;14.20;99.90;;;;;;5077409;28;20040;-67
2021/10/06 12:14:22;;;;;;;2.72;1.20;;;14.20;99.90;;;;;;5065151;28;20051;-68
2021/10/06 12:17:14;;;;;;;4.30;1.15;;;13.90;99.90;;;;;;5077866;28;20041;-68
2021/10/06 12:19:54;;;;;;;4.13;1.25;;;14.00;99.90;;;;;;5078040;28;20144;-68
2021/10/06 12:22:22;;;;;;;3.50;1.13;;;14.50;99.90;;;;;;5076044;28;20553;-67
2021/10/06 12:24:54;;;;;;;9.32;1.35;;;14.80;99.90;;;;;;5085107;28;20498;-67
2021/10/06 12:27:27;;;;;;;4.45;0.93;;;15.40;99.90;;;;;;5074152;28;20094;-67
2021/10/06 12:30:08;;;;;;;3.95;1.13;;;15.80;99.90;;;;;;5076070;28;20520;-67
2021/10/06 12:32:37;;;;;;;4.43;1.35;;;16.50;99.90;;;;;;5069368;28;20051;-67
2021/10/06 12:35:06;;;;;;;2.60;1.35;;;16.80;99.90;;;;;;5070217;28;20395;-67
2021/10/06 12:37:33;;;;;;;2.90;1.15;;;17.20;99.90;;;;;;5075550;28;20044;-67
2021/10/06 12:40:01;;;;;;;3.95;1.40;;;17.40;99.90;;;;;;5079282;28;20456;-67
2021/10/06 12:42:28;;;;;;;8.18;1.38;;;17.90;99.90;;;;;;5071799;28;20511;-67
2021/10/06 12:44:55;;;;;;;6.32;2.53;;;18.10;99.90;;;;;;5070719;28;20041;-67
2021/10/06 12:47:23;;;;;;;3.88;1.27;;;18.30;99.90;;;;;;5071884;28;20421;-68
2021/10/06 12:49:53;;;;;;;5.03;1.35;;;18.70;99.90;;;;;;5078788;28;20063;-68
2021/10/06 12:52:26;;;;;;;2.22;1.00;;;18.30;99.90;;;;;;5068455;28;20050;-67
2021/10/06 12:55:11;;;;;;;3.72;0.77;;;19.90;99.90;;;;;;5081766;28;20040;-68
2021/10/06 12:57:41;;;;;;;6.90;1.10;;;22.00;99.90;;;;;;5053048;28;20037;-68
2021/10/06 13:00:23;;;;;;;1.85;0.80;;;23.10;99.90;;;;;;5070506;28;20039;-68